You are not logged in, Click here to log in
成都雙流國際機場 / ZUUU 中華人民共和國四川省成都市双流县 機場代碼: CTU
ICAO: ZUUU Country: 中華人民共和國四川省成都市双流县 機場代碼: CTU
Latitude: 30.5675 Longitude: 103.949
Total Arrivals: 49 Total Departures: 45
Latest Arrival: CA4194 (ZBAA-ZUUU)Arthur. Kung Latest Departure: BR766 (ZUUU-RCTP)Jeff. Hsieh
Scenery:
METAR : ZUUU 241400Z 00000MPS 6000 FEW050 18/15 Q1018 NOSIG

成都雙流國際機場